sensor_id;sensor_type;location;lat;lon;timestamp;temperature;humidity
80282;DHT22;69586;51.890;-8.458;2024-02-26T10:14:04;15.80;51.30
80282;DHT22;69586;51.890;-8.458;2024-02-26T10:16:30;16.40;50.70
80282;DHT22;69586;51.890;-8.458;2024-02-26T10:18:56;16.70;50.70
80282;DHT22;69586;51.890;-8.458;2024-02-26T10:21:22;17.10;50.40
80282;DHT22;69586;51.890;-8.458;2024-02-26T10:23:49;17.50;49.50
80282;DHT22;69586;51.890;-8.458;2024-02-26T10:26:16;17.80;49.40
80282;DHT22;69586;51.890;-8.458;2024-02-26T10:28:43;18.10;49.10
80282;DHT22;69586;51.890;-8.458;2024-02-26T10:31:10;18.30;48.40
80282;DHT22;69586;51.890;-8.458;2024-02-26T10:33:39;18.50;48.30
80282;DHT22;69586;51.890;-8.458;2024-02-26T10:36:06;18.70;48.20
80282;DHT22;69586;51.890;-8.458;2024-02-26T10:38:34;19.00;47.80
80282;DHT22;69586;51.890;-8.458;2024-02-26T10:41:05;19.20;47.40
80282;DHT22;69586;51.890;-8.458;2024-02-26T10:43:31;19.50;46.80
80282;DHT22;69586;51.890;-8.458;2024-02-26T10:45:57;19.70;46.60
80282;DHT22;69586;51.890;-8.458;2024-02-26T10:48:23;19.90;46.30
80282;DHT22;69586;51.890;-8.458;2024-02-26T10:50:50;20.00;45.80
80282;DHT22;69586;51.890;-8.458;2024-02-26T10:53:22;20.30;45.70
80282;DHT22;69586;51.890;-8.458;2024-02-26T10:55:57;20.50;45.20
80282;DHT22;69586;51.890;-8.458;2024-02-26T10:58:23;20.50;45.00
80282;DHT22;69586;51.890;-8.458;2024-02-26T11:00:53;20.60;44.80
80282;DHT22;69586;51.890;-8.458;2024-02-26T11:03:22;20.70;44.50
80282;DHT22;69586;51.890;-8.458;2024-02-26T11:05:49;20.70;44.10
80282;DHT22;69586;51.890;-8.458;2024-02-26T11:08:19;20.80;44.30
80282;DHT22;69586;51.890;-8.458;2024-02-26T11:10:52;20.90;44.20
80282;DHT22;69586;51.890;-8.458;2024-02-26T11:13:18;21.10;43.90
80282;DHT22;69586;51.890;-8.458;2024-02-26T11:15:46;21.20;43.40
80282;DHT22;69586;51.890;-8.458;2024-02-26T11:18:15;21.30;43.60
80282;DHT22;69586;51.890;-8.458;2024-02-26T11:20:41;21.40;43.40
80282;DHT22;69586;51.890;-8.458;2024-02-26T11:23:08;21.50;43.30
80282;DHT22;69586;51.890;-8.458;2024-02-26T11:25:35;21.50;43.20
80282;DHT22;69586;51.890;-8.458;2024-02-26T11:28:05;21.50;43.10
80282;DHT22;69586;51.890;-8.458;2024-02-26T11:30:33;21.50;42.70
80282;DHT22;69586;51.890;-8.458;2024-02-26T11:33:00;21.50;42.90
80282;DHT22;69586;51.890;-8.458;2024-02-26T11:35:28;21.50;42.90
80282;DHT22;69586;51.890;-8.458;2024-02-26T11:37:55;21.50;42.80
80282;DHT22;69586;51.890;-8.458;2024-02-26T11:40:25;21.40;42.90
80282;DHT22;69586;51.890;-8.458;2024-02-26T11:42:51;21.40;42.80
80282;DHT22;69586;51.890;-8.458;2024-02-26T11:48:16;21.40;42.60
80282;DHT22;69586;51.890;-8.458;2024-02-26T11:50:47;21.40;42.80
80282;DHT22;69586;51.890;-8.458;2024-02-26T11:53:26;21.30;42.90
80282;DHT22;69586;51.890;-8.458;2024-02-26T11:58:43;21.20;42.90
80282;DHT22;69586;51.890;-8.458;2024-02-26T12:01:41;21.10;43.10
80282;DHT22;69586;51.890;-8.458;2024-02-26T12:04:11;21.10;43.20
80282;DHT22;69586;51.890;-8.458;2024-02-26T12:07:06;21.00;43.20
80282;DHT22;69586;51.890;-8.458;2024-02-26T12:09:39;20.90;43.20
80282;DHT22;69586;51.890;-8.458;2024-02-26T12:12:07;20.80;43.10
